Time;durP1;ratioP1;P1;durP2;ratioP2;P2;SDS_P1;SDS_P2;PMS_P1;PMS_P2;Temp;Humidity;BMP_temperature;BMP_pressure;BME280_temperature;BME280_humidity;BME280_pressure;Samples;Min_cycle;Max_cycle;Signal;HPM_P1;HPM_P2
2022/04/12 00:01:36;;;;;;;22.23;15.80;;;8.20;93.80;;;;;;5050395;28;20132;-43
2022/04/12 00:04:03;;;;;;;21.50;15.77;;;8.20;93.80;;;;;;5042540;28;20051;-43
2022/04/12 00:06:30;;;;;;;25.88;14.98;;;8.10;93.90;;;;;;5050509;28;20406;-43
2022/04/12 00:08:57;;;;;;;21.42;15.45;;;8.10;93.80;;;;;;5037336;28;20053;-44
2022/04/12 00:11:24;;;;;;;19.80;15.15;;;8.10;93.90;;;;;;5042041;28;20061;-44
2022/04/12 00:13:52;;;;;;;20.77;15.25;;;8.10;94.00;;;;;;5035288;28;20060;-43
2022/04/12 00:16:19;;;;;;;21.35;15.82;;;8.10;94.00;;;;;;5049178;28;20040;-44
2022/04/12 00:19:03;;;;;;;23.77;15.35;;;8.20;94.00;;;;;;5045109;28;20129;-44
2022/04/12 00:21:29;;;;;;;22.83;15.40;;;8.10;94.00;;;;;;5045537;28;20052;-44
2022/04/12 00:23:56;;;;;;;18.75;14.45;;;8.00;94.10;;;;;;5041669;28;20041;-43
2022/04/12 00:26:23;;;;;;;21.63;15.25;;;8.00;94.50;;;;;;5048793;28;20470;-44
2022/04/12 00:28:49;;;;;;;22.92;15.35;;;8.00;94.30;;;;;;5044178;28;20051;-42
2022/04/12 00:31:17;;;;;;;29.20;15.43;;;7.90;94.40;;;;;;5050512;28;20051;-43
2022/04/12 00:33:44;;;;;;;22.73;16.05;;;7.90;94.60;;;;;;5043428;28;20053;-44
2022/04/12 00:36:11;;;;;;;21.92;15.57;;;7.90;94.90;;;;;;5052223;28;20382;-44
2022/04/12 00:38:38;;;;;;;23.58;15.77;;;7.90;94.70;;;;;;5036972;28;20100;-44
2022/04/12 00:41:05;;;;;;;23.42;14.90;;;7.90;94.70;;;;;;5044786;28;20102;-43
2022/04/12 00:43:33;;;;;;;23.20;15.32;;;7.90;94.70;;;;;;5050340;28;20049;-43
2022/04/12 00:46:01;;;;;;;21.45;14.98;;;7.80;94.80;;;;;;5036003;28;20387;-44
2022/04/12 00:48:29;;;;;;;21.92;15.20;;;7.80;94.90;;;;;;5042635;28;20037;-44
2022/04/12 00:50:55;;;;;;;20.08;14.95;;;7.70;95.00;;;;;;5043788;28;20045;-42
2022/04/12 00:53:22;;;;;;;22.15;15.05;;;7.80;95.00;;;;;;5047016;28;20049;-44
2022/04/12 00:55:49;;;;;;;28.90;16.00;;;7.70;95.00;;;;;;5036225;28;20512;-43
2022/04/12 00:58:16;;;;;;;22.60;15.10;;;7.70;95.20;;;;;;5038734;28;20051;-43
2022/04/12 01:00:42;;;;;;;23.45;14.65;;;7.60;95.20;;;;;;5045981;28;20053;-44
2022/04/12 01:03:09;;;;;;;20.23;15.07;;;7.60;95.40;;;;;;5043355;28;20530;-43
2022/04/12 01:05:37;;;;;;;21.00;15.05;;;7.60;95.50;;;;;;5049366;28;20045;-43
2022/04/12 01:08:04;;;;;;;20.25;15.48;;;7.60;95.60;;;;;;5050927;28;20103;-44
2022/04/12 01:10:33;;;;;;;19.50;14.77;;;7.50;95.60;;;;;;5042186;28;20114;-43
2022/04/12 01:13:00;;;;;;;23.58;15.25;;;7.50;96.00;;;;;;5045689;28;20099;-43
2022/04/12 01:15:26;;;;;;;23.48;15.15;;;7.50;95.80;;;;;;5047525;28;20531;-43
2022/04/12 01:17:53;;;;;;;20.75;14.98;;;7.40;95.90;;;;;;5045719;28;20417;-43
2022/04/12 01:20:23;;;;;;;22.58;15.13;;;7.40;95.90;;;;;;5045742;28;20055;-43
2022/04/12 01:22:53;;;;;;;19.58;13.95;;;7.40;96.00;;;;;;5050362;28;20080;-43
2022/04/12 01:25:21;;;;;;;22.42;13.70;;;7.40;96.20;;;;;;5043345;28;20429;-43
2022/04/12 01:27:48;;;;;;;20.50;14.45;;;7.30;96.10;;;;;;5046313;28;20481;-44
2022/04/12 01:30:15;;;;;;;20.83;14.20;;;7.30;96.20;;;;;;5052301;28;20045;-43
2022/04/12 01:32:42;;;;;;;18.23;14.23;;;7.30;96.30;;;;;;5042417;28;20136;-43
2022/04/12 01:35:09;;;;;;;19.90;13.75;;;7.30;96.50;;;;;;5039165;28;20055;-43
2022/04/12 01:37:36;;;;;;;17.73;13.27;;;7.20;96.50;;;;;;5041003;28;20047;-44
2022/04/12 01:40:03;;;;;;;22.67;14.02;;;7.20;96.50;;;;;;5037231;28;20493;-44
2022/04/12 01:42:32;;;;;;;19.83;13.27;;;7.20;96.60;;;;;;5033377;28;20468;-44
2022/04/12 01:44:58;;;;;;;24.35;14.75;;;7.20;96.80;;;;;;5038782;28;20079;-44
2022/04/12 01:47:25;;;;;;;21.35;13.93;;;7.20;96.60;;;;;;5043304;28;20053;-44
2022/04/12 01:49:52;;;;;;;20.90;14.27;;;7.20;96.70;;;;;;5044056;28;20063;-43
2022/04/12 01:52:18;;;;;;;19.85;13.95;;;7.10;96.60;;;;;;5048232;28;20049;-44
2022/04/12 01:54:45;;;;;;;21.48;13.45;;;7.10;96.80;;;;;;5042424;28;20055;-44
2022/04/12 01:57:12;;;;;;;19.17;13.73;;;7.10;96.90;;;;;;5040841;28;20512;-42
2022/04/12 01:59:41;;;;;;;22.90;14.10;;;7.10;97.30;;;;;;5047714;28;20063;-43
2022/04/12 02:02:07;;;;;;;21.13;13.77;;;7.00;97.00;;;;;;5043122;28;20402;-44
2022/04/12 02:04:34;;;;;;;21.05;14.00;;;7.00;97.00;;;;;;5038063;28;20133;-44
2022/04/12 02:07:01;;;;;;;18.80;12.85;;;7.00;97.30;;;;;;5035689;28;20055;-43
2022/04/12 02:09:28;;;;;;;18.52;13.95;;;7.00;97.40;;;;;;5046112;28;20055;-43
2022/04/12 02:11:55;;;;;;;18.15;12.50;;;6.90;97.30;;;;;;5050700;28;20052;-43
2022/04/12 02:14:21;;;;;;;20.73;13.88;;;6.90;97.40;;;;;;5049996;28;20899;-43
2022/04/12 02:16:50;;;;;;;16.55;13.43;;;6.90;97.40;;;;;;5044478;28;20057;-44
2022/04/12 02:19:16;;;;;;;21.55;12.90;;;6.90;97.60;;;;;;5044082;28;20076;-43
2022/04/12 02:21:43;;;;;;;21.63;13.50;;;6.80;97.60;;;;;;5043834;28;20494;-43
2022/04/12 02:24:10;;;;;;;19.05;13.43;;;6.80;97.70;;;;;;5046535;28;20063;-42
2022/04/12 02:26:36;;;;;;;20.00;13.68;;;6.80;97.70;;;;;;5043465;28;20053;-43
2022/04/12 02:29:03;;;;;;;18.58;12.23;;;6.80;97.70;;;;;;5057006;28;20045;-42
2022/04/12 02:31:31;;;;;;;18.23;13.45;;;6.80;97.90;;;;;;5055477;28;20481;-42
2022/04/12 02:33:59;;;;;;;22.40;13.05;;;6.80;97.90;;;;;;5047352;28;20147;-38
2022/04/12 02:36:25;;;;;;;16.80;12.93;;;6.80;97.90;;;;;;5045202;28;20057;-42
2022/04/12 02:38:52;;;;;;;19.67;13.20;;;6.70;97.80;;;;;;5053696;28;20473;-42
2022/04/12 02:41:19;;;;;;;19.67;13.18;;;6.70;98.00;;;;;;5058533;28;20116;-44
2022/04/12 02:43:45;;;;;;;19.42;13.05;;;6.70;98.10;;;;;;5056512;28;20057;-43
2022/04/12 02:46:12;;;;;;;17.55;12.77;;;6.70;98.20;;;;;;5043274;28;20053;-44
2022/04/12 02:48:39;;;;;;;16.50;11.90;;;6.70;98.20;;;;;;5046066;28;20052;-43
2022/04/12 02:51:07;;;;;;;17.52;12.95;;;6.70;98.10;;;;;;5045185;28;20139;-43
2022/04/12 02:53:33;;;;;;;20.25;12.60;;;6.70;98.00;;;;;;5057034;28;20540;-44
2022/04/12 02:56:00;;;;;;;17.05;12.70;;;6.60;98.00;;;;;;5047550;28;20055;-45
2022/04/12 02:58:27;;;;;;;20.40;13.57;;;6.60;98.00;;;;;;5051418;28;20047;-42
2022/04/12 03:00:53;;;;;;;20.30;13.85;;;6.60;98.00;;;;;;5051016;28;20176;-44
2022/04/12 03:03:20;;;;;;;16.45;12.52;;;6.50;98.00;;;;;;5046680;28;20497;-44
2022/04/12 03:05:47;;;;;;;20.35;13.40;;;6.50;98.10;;;;;;5048871;28;20059;-44
2022/04/12 03:08:15;;;;;;;18.23;13.02;;;6.50;98.40;;;;;;5047859;28;20049;-44
2022/04/12 03:10:41;;;;;;;18.60;13.27;;;6.40;98.50;;;;;;5043386;28;20053;-44
2022/04/12 03:13:08;;;;;;;17.52;12.48;;;6.40;98.50;;;;;;5055733;28;20080;-44
2022/04/12 03:15:35;;;;;;;20.95;12.68;;;6.40;98.90;;;;;;5051183;28;20045;-43
2022/04/12 03:18:01;;;;;;;20.95;13.48;;;6.40;98.90;;;;;;5047915;28;20081;-44
2022/04/12 03:20:28;;;;;;;19.63;13.70;;;6.40;98.90;;;;;;5047428;28;20041;-43
2022/04/12 03:22:55;;;;;;;22.08;12.98;;;6.30;99.20;;;;;;5042568;28;20055;-42
2022/04/12 03:25:23;;;;;;;19.50;12.90;;;6.30;99.10;;;;;;5046175;28;20044;-43
2022/04/12 03:27:49;;;;;;;16.35;12.60;;;6.30;99.10;;;;;;5046203;28;20052;-44
2022/04/12 03:30:16;;;;;;;18.33;13.88;;;6.30;99.10;;;;;;5047143;28;20442;-44
2022/04/12 03:32:43;;;;;;;19.15;13.02;;;6.20;99.10;;;;;;5044387;28;20041;-44
2022/04/12 03:35:09;;;;;;;21.27;13.68;;;6.30;99.50;;;;;;5037687;28;20084;-44
2022/04/12 03:37:36;;;;;;;18.95;13.32;;;6.20;99.30;;;;;;5048325;28;20133;-42
2022/04/12 03:40:03;;;;;;;19.38;13.45;;;6.20;99.40;;;;;;5041450;28;20041;-44
2022/04/12 03:42:31;;;;;;;20.42;13.35;;;6.20;99.50;;;;;;5039838;28;20052;-45
2022/04/12 03:44:58;;;;;;;20.30;13.73;;;6.20;99.70;;;;;;5049587;28;20041;-45
2022/04/12 03:47:24;;;;;;;23.42;13.85;;;6.20;99.90;;;;;;5034703;28;20494;-44
2022/04/12 03:49:51;;;;;;;17.95;13.43;;;6.20;99.90;;;;;;5047981;28;20045;-43
2022/04/12 03:52:18;;;;;;;20.83;13.65;;;6.30;99.90;;;;;;5037218;28;20049;-43
2022/04/12 03:54:44;;;;;;;19.75;13.38;;;6.30;99.90;;;;;;5045378;28;20052;-45
2022/04/12 03:57:11;;;;;;;17.77;12.80;;;6.20;99.90;;;;;;5053386;28;20048;-44
2022/04/12 03:59:39;;;;;;;22.25;13.25;;;6.20;99.90;;;;;;5045315;28;20144;-44
2022/04/12 04:02:06;;;;;;;19.73;13.30;;;6.20;99.90;;;;;;5042758;28;20049;-43
2022/04/12 04:04:33;;;;;;;21.00;13.25;;;6.20;99.90;;;;;;5043130;28;20045;-43
2022/04/12 04:06:59;;;;;;;21.55;14.15;;;6.20;99.90;;;;;;5044347;28;20053;-42
2022/04/12 04:09:26;;;;;;;20.15;13.85;;;6.20;99.90;;;;;;5040132;28;20041;-43
2022/04/12 04:11:53;;;;;;;19.15;12.77;;;6.20;99.90;;;;;;5046578;28;20048;-44
2022/04/12 04:14:22;;;;;;;17.35;13.55;;;6.20;99.90;;;;;;5041848;28;20053;-43
2022/04/12 04:16:50;;;;;;;17.77;12.35;;;6.20;99.90;;;;;;5044668;28;20048;-42
2022/04/12 04:19:17;;;;;;;18.40;12.57;;;6.20;99.90;;;;;;5047917;28;20106;-44
2022/04/12 04:21:43;;;;;;;21.67;13.73;;;6.20;99.90;;;;;;5047021;28;20055;-44
2022/04/12 04:24:10;;;;;;;22.75;13.52;;;6.20;99.90;;;;;;5043150;28;20041;-42
2022/04/12 04:26:38;;;;;;;16.73;13.02;;;6.20;99.90;;;;;;5048506;28;20056;-40
2022/04/12 04:29:05;;;;;;;20.95;12.65;;;6.20;99.90;;;;;;5053446;28;20045;-42
2022/04/12 04:31:32;;;;;;;19.45;13.73;;;6.20;99.90;;;;;;5045852;28;20533;-43
2022/04/12 04:34:00;;;;;;;20.40;13.52;;;6.10;99.90;;;;;;5051224;28;20052;-43
2022/04/12 04:36:27;;;;;;;18.50;13.20;;;6.10;99.90;;;;;;5050347;28;20049;-41
2022/04/12 04:38:53;;;;;;;20.77;13.07;;;6.10;99.90;;;;;;5044695;28;20501;-43
2022/04/12 04:41:20;;;;;;;20.02;13.40;;;6.10;99.90;;;;;;5041989;28;20401;-43
2022/04/12 04:43:47;;;;;;;19.17;12.77;;;6.10;99.90;;;;;;5047874;28;20507;-43
2022/04/12 04:46:14;;;;;;;23.27;13.07;;;6.10;99.90;;;;;;5051397;28;20073;-44
2022/04/12 04:48:41;;;;;;;17.98;13.23;;;6.10;99.90;;;;;;5054598;28;20052;-43
2022/04/12 04:51:09;;;;;;;22.05;13.30;;;6.10;99.90;;;;;;5045422;28;20400;-44
2022/04/12 04:53:37;;;;;;;17.75;12.52;;;6.10;99.90;;;;;;5040836;28;20438;-44
2022/04/12 04:56:04;;;;;;;18.13;12.88;;;6.10;99.90;;;;;;5042290;28;20064;-44
2022/04/12 04:58:31;;;;;;;19.38;12.52;;;6.10;99.90;;;;;;5040220;28;20160;-43
2022/04/12 05:00:58;;;;;;;17.67;12.68;;;6.10;99.90;;;;;;5052112;28;20052;-44
2022/04/12 05:03:27;;;;;;;18.13;13.20;;;6.00;99.90;;;;;;5050431;28;20045;-44
2022/04/12 05:05:53;;;;;;;17.50;12.70;;;6.00;99.90;;;;;;5050698;28;20053;-44
2022/04/12 05:08:21;;;;;;;19.25;13.25;;;6.00;99.90;;;;;;5047955;28;20051;-43
2022/04/12 05:10:48;;;;;;;19.58;12.60;;;6.00;99.90;;;;;;5048613;28;20045;-44
2022/04/12 05:13:15;;;;;;;16.95;12.45;;;6.00;99.90;;;;;;5045355;28;20057;-43
2022/04/12 05:15:41;;;;;;;19.08;12.32;;;6.00;99.90;;;;;;5045754;28;20045;-42
2022/04/12 05:18:08;;;;;;;16.88;12.65;;;6.00;99.90;;;;;;5046585;28;20057;-44
2022/04/12 05:20:35;;;;;;;18.65;12.80;;;6.10;99.90;;;;;;5044540;28;20053;-42
2022/04/12 05:23:02;;;;;;;19.40;13.50;;;6.00;99.90;;;;;;5046711;28;20103;-43
2022/04/12 05:25:30;;;;;;;19.38;13.30;;;6.10;99.90;;;;;;5033190;28;20482;-43
2022/04/12 05:27:56;;;;;;;21.65;12.23;;;6.10;99.90;;;;;;5041257;28;20049;-42
2022/04/12 05:30:24;;;;;;;16.30;12.57;;;6.10;99.90;;;;;;5047646;28;20037;-43
2022/04/12 05:32:50;;;;;;;17.65;12.63;;;6.20;99.90;;;;;;5047996;28;20060;-44
2022/04/12 05:35:17;;;;;;;17.17;12.68;;;6.30;99.90;;;;;;5043396;28;20404;-42
2022/04/12 05:37:44;;;;;;;18.25;12.35;;;6.30;99.90;;;;;;5045818;28;20125;-44
2022/04/12 05:40:11;;;;;;;16.90;12.40;;;6.40;99.90;;;;;;5048447;28;20128;-43
2022/04/12 05:42:39;;;;;;;17.58;13.45;;;6.40;99.90;;;;;;5044971;28;20061;-44
2022/04/12 05:45:07;;;;;;;16.45;11.60;;;6.50;99.90;;;;;;5038489;28;20059;-44
2022/04/12 05:47:41;;;;;;;19.38;13.43;;;6.60;99.90;;;;;;5042275;28;20059;-43
2022/04/12 05:50:09;;;;;;;18.38;12.63;;;6.60;99.90;;;;;;5046050;28;20052;-43
2022/04/12 05:52:36;;;;;;;23.10;12.65;;;6.70;99.90;;;;;;5037849;28;20524;-43
2022/04/12 05:55:02;;;;;;;18.13;12.45;;;6.80;99.90;;;;;;5039164;28;20064;-44
2022/04/12 05:57:29;;;;;;;19.67;12.50;;;6.80;99.90;;;;;;5040913;28;20079;-43
2022/04/12 05:59:57;;;;;;;15.18;11.80;;;6.90;99.90;;;;;;5039640;28;20064;-42
2022/04/12 06:02:24;;;;;;;18.65;12.45;;;7.00;99.90;;;;;;5040418;28;20512;-42
2022/04/12 06:04:50;;;;;;;20.08;12.68;;;7.10;99.90;;;;;;5037064;28;20076;-43
2022/04/12 06:07:17;;;;;;;19.40;13.30;;;7.10;99.90;;;;;;5050514;28;20053;-44
2022/04/12 06:09:44;;;;;;;17.45;11.32;;;7.20;99.90;;;;;;5044972;28;20494;-44
2022/04/12 06:12:11;;;;;;;16.70;11.57;;;7.20;99.90;;;;;;5045242;28;20045;-45
2022/04/12 06:14:37;;;;;;;17.10;12.20;;;7.30;99.90;;;;;;5041023;28;20508;-44
2022/04/12 06:17:06;;;;;;;17.83;11.85;;;7.40;99.90;;;;;;5036150;28;20045;-43
2022/04/12 06:19:32;;;;;;;19.73;12.90;;;7.40;99.90;;;;;;5037246;28;20124;-44
2022/04/12 06:21:59;;;;;;;23.63;13.88;;;7.50;99.90;;;;;;5046463;28;20046;-43
2022/04/12 06:24:26;;;;;;;18.95;11.50;;;7.50;99.90;;;;;;5039831;28;20045;-44
2022/04/12 06:26:52;;;;;;;16.23;11.57;;;7.60;99.90;;;;;;5040412;28;20172;-43
2022/04/12 06:29:19;;;;;;;17.88;11.77;;;7.70;99.90;;;;;;5037420;28;20049;-43
2022/04/12 06:31:46;;;;;;;21.27;11.85;;;7.80;99.90;;;;;;5049844;28;20402;-43
2022/04/12 06:34:14;;;;;;;18.88;11.48;;;7.80;99.90;;;;;;5038192;28;20049;-42
2022/04/12 06:36:40;;;;;;;18.02;11.27;;;7.90;99.90;;;;;;5042489;28;20048;-43
2022/04/12 06:39:07;;;;;;;19.67;11.63;;;7.90;99.90;;;;;;5039506;28;20080;-44
2022/04/12 06:41:34;;;;;;;18.33;11.82;;;8.00;99.90;;;;;;5046118;28;20127;-43
2022/04/12 06:44:00;;;;;;;16.60;12.15;;;8.10;99.90;;;;;;5041032;28;20418;-44
2022/04/12 06:46:27;;;;;;;17.48;11.82;;;8.10;99.90;;;;;;5041203;28;20053;-43
2022/04/12 06:48:54;;;;;;;15.20;10.95;;;8.20;99.80;;;;;;5048006;28;20055;-44
2022/04/12 06:51:22;;;;;;;17.63;11.65;;;8.20;99.70;;;;;;5046049;28;20056;-43
2022/04/12 06:53:50;;;;;;;18.83;12.27;;;8.30;99.60;;;;;;5036663;28;20139;-44
2022/04/12 06:56:17;;;;;;;15.73;10.60;;;8.30;99.50;;;;;;5047483;28;20052;-43
2022/04/12 06:58:44;;;;;;;15.68;11.45;;;8.30;99.50;;;;;;5043459;28;20512;-43
2022/04/12 07:01:11;;;;;;;20.35;12.25;;;8.40;99.40;;;;;;5046944;28;20053;-43
2022/04/12 07:03:37;;;;;;;20.48;11.70;;;8.40;99.40;;;;;;5048647;28;20056;-44
2022/04/12 07:06:04;;;;;;;18.95;11.77;;;8.50;99.30;;;;;;5054086;28;20053;-43
2022/04/12 07:08:32;;;;;;;16.83;11.43;;;8.50;99.20;;;;;;5045626;28;20037;-43
2022/04/12 07:10:59;;;;;;;16.92;11.13;;;8.60;99.10;;;;;;5044263;28;20055;-43
2022/04/12 07:13:25;;;;;;;18.55;11.40;;;8.60;99.10;;;;;;5052787;28;20051;-43
2022/04/12 07:15:52;;;;;;;17.48;11.07;;;8.70;99.00;;;;;;5048524;28;20044;-44
2022/04/12 07:18:19;;;;;;;18.23;11.38;;;8.80;98.90;;;;;;5046104;28;20386;-44
2022/04/12 07:20:45;;;;;;;17.00;11.18;;;8.90;98.90;;;;;;5042827;28;20052;-44
2022/04/12 07:23:12;;;;;;;21.08;11.73;;;9.10;98.60;;;;;;5050049;28;20265;-44
2022/04/12 07:25:40;;;;;;;18.98;11.02;;;9.30;98.50;;;;;;5043480;28;20059;-44
2022/04/12 07:28:07;;;;;;;18.80;11.27;;;9.50;98.10;;;;;;5041510;28;20112;-44
2022/04/12 07:30:34;;;;;;;17.38;10.43;;;9.70;97.70;;;;;;5046039;28;20049;-43
2022/04/12 07:33:01;;;;;;;15.50;9.63;;;9.90;97.10;;;;;;5053606;28;20481;-44
2022/04/12 07:35:27;;;;;;;15.50;10.23;;;10.00;96.50;;;;;;5054288;28;20044;-43
2022/04/12 07:37:54;;;;;;;17.33;11.07;;;10.20;96.20;;;;;;5032745;28;20432;-44
2022/04/12 07:40:21;;;;;;;19.23;10.55;;;10.30;95.80;;;;;;5047484;28;20041;-44
2022/04/12 07:42:49;;;;;;;15.60;9.82;;;10.50;95.50;;;;;;5054044;28;20548;-44
2022/04/12 07:45:16;;;;;;;17.48;9.85;;;10.60;94.50;;;;;;5053039;28;20263;-43
2022/04/12 07:47:42;;;;;;;15.85;10.27;;;10.80;94.20;;;;;;5051648;28;20144;-44
2022/04/12 07:50:10;;;;;;;13.18;9.27;;;10.90;93.80;;;;;;5051215;28;20045;-44
2022/04/12 07:52:37;;;;;;;14.20;9.75;;;11.00;93.70;;;;;;5039640;28;20057;-44
2022/04/12 07:55:04;;;;;;;14.80;9.57;;;11.20;93.20;;;;;;5043109;28;20071;-44
2022/04/12 07:57:31;;;;;;;15.75;10.02;;;11.30;92.60;;;;;;5052905;28;20075;-45
2022/04/12 08:00:00;;;;;;;14.10;9.27;;;11.40;92.60;;;;;;5038931;28;20057;-45
2022/04/12 08:02:26;;;;;;;18.05;9.93;;;11.50;92.70;;;;;;5049973;28;20059;-44
2022/04/12 08:04:55;;;;;;;17.80;10.20;;;11.80;92.60;;;;;;5042884;28;20058;-44
2022/04/12 08:07:21;;;;;;;14.73;9.60;;;11.90;91.90;;;;;;5043197;28;20057;-44
2022/04/12 08:09:48;;;;;;;15.93;10.45;;;12.00;91.40;;;;;;5050232;28;20049;-44
2022/04/12 08:12:15;;;;;;;15.68;9.82;;;12.00;90.90;;;;;;5050911;28;20049;-45
2022/04/12 08:14:41;;;;;;;14.98;9.95;;;12.20;90.50;;;;;;5043493;28;20556;-44
2022/04/12 08:17:09;;;;;;;14.23;9.63;;;12.20;90.40;;;;;;5045009;28;20412;-45
2022/04/12 08:19:36;;;;;;;15.77;9.55;;;12.20;90.40;;;;;;5050233;28;20088;-45
2022/04/12 08:22:03;;;;;;;15.07;10.05;;;12.30;90.40;;;;;;5043524;28;20079;-44
2022/04/12 08:24:30;;;;;;;17.83;10.07;;;12.40;90.10;;;;;;5043126;28;20050;-44
2022/04/12 08:26:56;;;;;;;16.15;10.07;;;12.50;89.50;;;;;;5045782;28;20056;-44
2022/04/12 08:29:23;;;;;;;13.35;9.05;;;12.60;90.00;;;;;;5042818;28;20055;-45
2022/04/12 08:31:50;;;;;;;14.95;10.23;;;12.70;89.50;;;;;;5049362;28;20052;-45
2022/04/12 08:34:18;;;;;;;16.38;9.85;;;12.80;89.40;;;;;;5052495;28;20412;-44
2022/04/12 08:36:44;;;;;;;13.07;8.32;;;13.00;88.70;;;;;;5039629;28;20127;-44
2022/04/12 08:39:13;;;;;;;16.50;9.27;;;13.10;87.40;;;;;;5048703;28;20497;-45
2022/04/12 08:41:40;;;;;;;14.95;9.32;;;13.10;86.80;;;;;;5044421;28;20052;-45
2022/04/12 08:44:07;;;;;;;13.02;8.98;;;13.30;87.50;;;;;;5042057;28;20053;-44
2022/04/12 08:46:34;;;;;;;17.30;10.15;;;13.50;86.80;;;;;;5033924;28;20055;-44
2022/04/12 08:49:01;;;;;;;14.70;8.70;;;13.70;85.60;;;;;;5044280;28;20489;-44
2022/04/12 08:51:30;;;;;;;14.35;9.98;;;13.80;84.20;;;;;;5051285;28;20045;-44
2022/04/12 08:53:57;;;;;;;13.38;9.57;;;13.80;83.20;;;;;;5036308;28;20049;-44
2022/04/12 08:56:24;;;;;;;15.07;10.05;;;14.00;83.70;;;;;;5043367;28;20068;-44
2022/04/12 08:58:50;;;;;;;12.75;8.85;;;14.20;83.10;;;;;;5036505;28;20505;-44
2022/04/12 09:01:17;;;;;;;16.42;8.90;;;14.30;82.30;;;;;;5044406;28;20041;-45
2022/04/12 09:03:45;;;;;;;12.93;9.00;;;14.50;81.80;;;;;;5040539;28;20127;-45
2022/04/12 09:06:12;;;;;;;12.95;8.95;;;14.60;81.40;;;;;;5045526;28;20051;-45
2022/04/12 09:08:40;;;;;;;13.77;9.50;;;14.70;81.00;;;;;;5062639;28;20513;-45
2022/04/12 09:11:08;;;;;;;15.40;9.43;;;14.70;79.60;;;;;;5035434;28;20124;-45
2022/04/12 09:13:35;;;;;;;16.73;9.15;;;14.80;79.70;;;;;;5050187;28;20507;-45
2022/04/12 09:16:02;;;;;;;15.90;9.75;;;15.00;79.10;;;;;;5043664;28;20064;-44
2022/04/12 09:18:38;;;;;;;14.27;8.43;;;15.10;79.30;;;;;;5066912;28;20041;-45
2022/04/12 09:21:15;;;;;;;13.05;9.05;;;15.40;77.20;;;;;;5043461;28;20141;-45
2022/04/12 09:23:48;;;;;;;13.77;9.02;;;15.50;77.60;;;;;;5043331;28;20128;-44
2022/04/12 09:26:25;;;;;;;13.20;9.07;;;15.50;75.90;;;;;;5040660;28;20098;-45
2022/04/12 09:28:52;;;;;;;15.88;9.77;;;15.50;75.60;;;;;;5051162;28;20045;-45
2022/04/12 09:31:19;;;;;;;11.73;8.68;;;15.40;75.50;;;;;;5047319;28;20041;-44
2022/04/12 09:33:47;;;;;;;12.88;9.23;;;15.40;75.40;;;;;;5047746;28;20053;-45
2022/04/12 09:36:13;;;;;;;13.18;8.73;;;15.50;75.30;;;;;;5038230;28;20817;-44
2022/04/12 09:38:41;;;;;;;15.68;9.57;;;15.60;74.80;;;;;;5039507;28;20057;-44
2022/04/12 09:41:16;;;;;;;14.15;9.05;;;15.70;75.50;;;;;;5046053;28;20052;-44
2022/04/12 09:43:57;;;;;;;14.68;9.40;;;15.80;72.50;;;;;;5043798;28;20060;-44
2022/04/12 09:46:24;;;;;;;13.68;8.60;;;15.90;72.80;;;;;;5045600;28;20073;-45
2022/04/12 09:48:52;;;;;;;11.73;8.50;;;16.00;73.70;;;;;;5045813;28;20059;-44
2022/04/12 09:51:21;;;;;;;13.23;9.18;;;16.00;73.40;;;;;;5042969;28;20076;-45
2022/04/12 09:53:47;;;;;;;12.68;8.30;;;16.10;73.70;;;;;;5046317;28;20406;-44
2022/04/12 09:56:20;;;;;;;13.32;9.00;;;16.30;72.90;;;;;;5046956;28;20060;-45
2022/04/12 09:58:48;;;;;;;11.63;8.20;;;16.40;72.70;;;;;;5042687;28;20137;-45
2022/04/12 10:01:15;;;;;;;14.15;9.30;;;16.50;72.70;;;;;;5049947;28;20512;-46
2022/04/12 10:03:44;;;;;;;13.02;9.00;;;16.70;72.30;;;;;;5043505;28;20421;-44
2022/04/12 10:06:12;;;;;;;14.77;9.07;;;16.70;71.90;;;;;;5042890;28;20053;-44
2022/04/12 10:08:39;;;;;;;13.07;7.97;;;16.70;71.80;;;;;;5050017;28;20115;-44
2022/04/12 10:11:06;;;;;;;14.85;8.95;;;16.80;71.80;;;;;;5043206;28;20041;-45
2022/04/12 10:13:35;;;;;;;13.85;9.15;;;16.90;71.50;;;;;;5046247;28;20045;-44
2022/04/12 10:16:01;;;;;;;12.48;8.77;;;17.10;70.90;;;;;;5031572;28;20061;-44
2022/04/12 10:18:28;;;;;;;11.05;8.32;;;17.20;70.30;;;;;;5051199;28;20712;-45
2022/04/12 10:20:56;;;;;;;14.48;9.25;;;17.20;70.50;;;;;;5049952;28;20056;-45
2022/04/12 10:23:23;;;;;;;14.85;8.80;;;17.30;69.70;;;;;;5045361;28;20160;-44
2022/04/12 10:25:51;;;;;;;13.57;8.45;;;17.40;69.30;;;;;;5040213;28;20049;-45
2022/04/12 10:28:17;;;;;;;11.07;8.48;;;17.30;69.30;;;;;;5046772;28;20059;-44
2022/04/12 10:30:46;;;;;;;13.75;8.32;;;17.60;69.80;;;;;;5048107;28;20049;-45
2022/04/12 10:33:18;;;;;;;15.68;8.98;;;17.60;68.50;;;;;;5054808;28;20143;-45
2022/04/12 10:35:58;;;;;;;12.35;8.05;;;17.80;68.70;;;;;;5055004;28;20132;-45
2022/04/12 10:38:25;;;;;;;12.60;8.43;;;17.90;67.40;;;;;;5044206;28;20059;-45
2022/04/12 10:40:54;;;;;;;13.02;9.32;;;17.90;67.60;;;;;;5049930;28;20511;-44
2022/04/12 10:43:23;;;;;;;13.27;8.93;;;17.90;67.70;;;;;;5044366;28;20080;-45
2022/04/12 10:45:51;;;;;;;15.48;9.65;;;17.90;67.30;;;;;;5043406;28;20427;-43
2022/04/12 10:48:19;;;;;;;14.43;8.40;;;18.10;67.70;;;;;;5051992;28;20057;-43
2022/04/12 10:50:46;;;;;;;12.52;8.48;;;18.30;68.20;;;;;;5053292;28;20132;-42
2022/04/12 10:53:13;;;;;;;13.95;8.35;;;18.40;67.10;;;;;;5046684;28;20076;-44
2022/04/12 10:55:41;;;;;;;12.88;8.63;;;18.50;67.00;;;;;;5050531;28;20057;-44
2022/04/12 10:58:14;;;;;;;12.77;7.97;;;18.60;66.30;;;;;;5046775;28;20507;-44
2022/04/12 11:00:41;;;;;;;15.98;9.18;;;18.60;64.80;;;;;;5046582;28;20048;-44
2022/04/12 11:03:11;;;;;;;16.38;9.43;;;18.60;65.70;;;;;;5054543;28;20064;-44
2022/04/12 11:06:03;;;;;;;13.95;9.10;;;18.60;64.60;;;;;;5055201;28;20061;-43
2022/04/12 11:08:48;;;;;;;14.10;7.90;;;18.80;64.80;;;;;;5050872;28;20128;-45
2022/04/12 11:11:27;;;;;;;14.75;8.80;;;18.90;64.70;;;;;;5043222;28;20048;-45
2022/04/12 11:13:54;;;;;;;12.18;8.82;;;19.00;63.90;;;;;;5049831;28;20053;-45
2022/04/12 11:16:21;;;;;;;16.67;9.23;;;19.00;64.40;;;;;;5048480;28;20475;-44
2022/04/12 11:18:50;;;;;;;12.40;8.10;;;19.00;63.90;;;;;;5057641;28;20545;-44
2022/04/12 11:21:17;;;;;;;11.48;8.75;;;19.00;63.00;;;;;;5054127;28;20045;-45
2022/04/12 11:23:48;;;;;;;13.20;8.65;;;19.10;63.80;;;;;;5050029;28;20124;-44
2022/04/12 11:26:44;;;;;;;13.00;8.93;;;19.10;63.30;;;;;;5045422;28;20053;-46
2022/04/12 11:29:11;;;;;;;14.60;8.43;;;19.10;62.20;;;;;;5020195;28;20469;-46
2022/04/12 11:31:42;;;;;;;16.27;8.23;;;19.10;63.30;;;;;;5042657;28;20045;-44
2022/04/12 11:34:10;;;;;;;14.23;8.10;;;19.10;63.90;;;;;;5067785;28;20131;-45
2022/04/12 11:36:38;;;;;;;12.00;8.15;;;19.10;63.30;;;;;;5047652;28;20045;-43
2022/04/12 11:39:05;;;;;;;12.77;8.77;;;19.20;64.00;;;;;;5041059;28;20529;-44
2022/04/12 11:41:32;;;;;;;13.23;8.27;;;19.20;64.00;;;;;;5044825;28;20549;-45
2022/04/12 11:43:59;;;;;;;13.63;9.02;;;19.30;63.50;;;;;;5050461;28;20128;-46
2022/04/12 11:46:26;;;;;;;12.15;8.45;;;19.30;63.00;;;;;;5040967;28;20056;-44
2022/04/12 11:48:53;;;;;;;12.38;8.85;;;19.30;62.90;;;;;;5049825;28;20055;-45
2022/04/12 11:51:22;;;;;;;13.85;9.25;;;19.40;62.10;;;;;;5051133;28;20049;-44
2022/04/12 11:53:49;;;;;;;16.52;8.82;;;19.40;62.60;;;;;;5042209;28;20072;-45
2022/04/12 11:56:16;;;;;;;14.15;9.43;;;19.50;62.20;;;;;;5040837;28;20084;-44
2022/04/12 11:58:45;;;;;;;20.65;9.38;;;19.50;62.10;;;;;;5054912;28;20080;-44
2022/04/12 12:01:13;;;;;;;13.23;9.05;;;19.50;61.60;;;;;;5050821;28;20045;-43
2022/04/12 12:03:41;;;;;;;14.57;9.02;;;19.50;61.70;;;;;;5050808;28;20132;-44
2022/04/12 12:06:08;;;;;;;15.57;9.02;;;19.60;60.80;;;;;;5044135;28;20068;-45
2022/04/12 12:08:36;;;;;;;17.17;9.25;;;19.70;61.00;;;;;;5046182;28;20041;-44
2022/04/12 12:11:10;;;;;;;18.58;10.13;;;19.80;60.90;;;;;;5044594;28;20049;-46
2022/04/12 12:13:37;;;;;;;13.27;9.27;;;20.00;60.80;;;;;;5042505;28;20487;-45
2022/04/12 12:16:13;;;;;;;15.35;9.43;;;20.10;61.20;;;;;;5046766;28;20055;-45
2022/04/12 12:18:40;;;;;;;17.10;10.10;;;20.30;60.60;;;;;;5047594;28;20064;-46
2022/04/12 12:21:07;;;;;;;16.70;9.68;;;20.40;59.60;;;;;;5045295;28;20103;-45
2022/04/12 12:23:33;;;;;;;14.82;10.02;;;20.50;59.20;;;;;;5051598;28;20049;-46
2022/04/12 12:26:01;;;;;;;15.65;10.00;;;20.50;58.90;;;;;;5053934;28;20523;-44
2022/04/12 12:28:28;;;;;;;14.75;10.23;;;20.50;58.90;;;;;;5053885;28;20131;-44
2022/04/12 12:30:57;;;;;;;16.30;10.45;;;20.50;58.60;;;;;;5047104;28;20184;-45
2022/04/12 12:33:24;;;;;;;15.38;10.52;;;20.50;58.20;;;;;;5052148;28;20054;-44
2022/04/12 12:35:51;;;;;;;18.75;9.88;;;20.60;58.50;;;;;;5045848;28;20378;-44
2022/04/12 12:38:19;;;;;;;16.58;10.77;;;20.90;60.10;;;;;;5051909;28;20059;-44